EKBI

Billund Airport

Billund, Denmark
METAR EKBI 212250Z AUTO 11004KT 9999NDV FEW034/// BKN053/// 16/11 Q1020
Observed Flight Rules
Aug-21 @ 22:50 UTC (57 minutes ago)
Wind Clouds
110° at 4 knots
  • Few at 3,400' AGL
  • Broken at 5,300' AGL
Temperatures Readings
Current 16°C / 61°F
Dewpoint 11°C / 52°F
Humidity 72%
Altimeter 30.12" Hg
Pressure 1020 hPa
Elevation 66
METAR EKBI 212250Z AUTO 11004KT 9999NDV FEW034/// BKN053/// 16/11 Q1020
Observed Flight Rules
Aug-21 @ 22:50 UTC
(57 minutes ago)
Wind
110° at 4 knots
Clouds
  • Few at 3,400' AGL
  • Broken at 5,300' AGL
Temperature Dewpoint
16°C / 61°F 11°C / 52°F
Humidity Altimeter Pressure
72% 30.12" Hg 1020 hPa